Kaolack, Senegal
Current Conditions -  °F | °C
As of 9:00 AM on Saturday 25 Oct 2014 (Local Time) from GOOK Reporting Station
Broken Clouds Broken Clouds  
Wind Chill: 81°   Ceiling: 1600
Heat Index: 88°   Visibility: 6mi
Dew Point: 79°   Wind: 5mph
Humidity: 94%   Direction: 360°N
Pressure: 29.88"   Gusts: NA
Location:  14.15°N, 16.1°W
Report Text: GOOK 250900Z 36004KT 9999 BKN016 27/26 Q1012
Loading
Personal Weather Stations






























Interactive Weather Map
Tropical Storm Tracking
New forecast layout! Learn more

10-Day Weather Forecast

Advertisements
Track Severe Weather on mobile